sensor_id;sensor_type;location;lat;lon;timestamp;P1;durP1;ratioP1;P2;durP2;ratioP2
35114;SDS011;21292;52.416;13.046;2023-02-28T00:00:07;14.45;;;7.03;;
35114;SDS011;21292;52.416;13.046;2023-02-28T00:02:38;13.40;;;7.57;;
35114;SDS011;21292;52.416;13.046;2023-02-28T00:05:07;12.65;;;7.45;;
35114;SDS011;21292;52.416;13.046;2023-02-28T00:07:38;21.67;;;8.63;;
35114;SDS011;21292;52.416;13.046;2023-02-28T00:10:10;17.45;;;8.43;;
35114;SDS011;21292;52.416;13.046;2023-02-28T00:12:42;16.95;;;8.05;;
35114;SDS011;21292;52.416;13.046;2023-02-28T00:15:11;15.32;;;8.75;;
35114;SDS011;21292;52.416;13.046;2023-02-28T00:17:41;14.73;;;8.27;;
35114;SDS011;21292;52.416;13.046;2023-02-28T00:20:11;14.35;;;7.97;;
35114;SDS011;21292;52.416;13.046;2023-02-28T00:22:41;15.88;;;7.15;;
35114;SDS011;21292;52.416;13.046;2023-02-28T00:25:12;20.57;;;8.97;;
35114;SDS011;21292;52.416;13.046;2023-02-28T00:27:42;14.52;;;7.38;;
35114;SDS011;21292;52.416;13.046;2023-02-28T00:30:12;18.40;;;7.70;;
35114;SDS011;21292;52.416;13.046;2023-02-28T00:32:44;16.52;;;8.85;;
35114;SDS011;21292;52.416;13.046;2023-02-28T00:35:13;13.05;;;8.57;;
35114;SDS011;21292;52.416;13.046;2023-02-28T00:37:42;13.55;;;7.93;;
35114;SDS011;21292;52.416;13.046;2023-02-28T00:40:11;17.27;;;8.05;;
35114;SDS011;21292;52.416;13.046;2023-02-28T00:42:39;15.57;;;8.40;;
35114;SDS011;21292;52.416;13.046;2023-02-28T00:45:10;12.63;;;7.55;;
35114;SDS011;21292;52.416;13.046;2023-02-28T00:47:39;14.82;;;7.88;;
35114;SDS011;21292;52.416;13.046;2023-02-28T00:52:40;13.75;;;7.53;;
35114;SDS011;21292;52.416;13.046;2023-02-28T00:55:09;14.25;;;8.07;;
35114;SDS011;21292;52.416;13.046;2023-02-28T00:57:39;12.63;;;7.40;;
35114;SDS011;21292;52.416;13.046;2023-02-28T01:00:08;13.38;;;8.00;;
35114;SDS011;21292;52.416;13.046;2023-02-28T01:02:38;15.38;;;8.15;;
35114;SDS011;21292;52.416;13.046;2023-02-28T01:05:06;13.57;;;7.93;;
35114;SDS011;21292;52.416;13.046;2023-02-28T01:07:39;17.73;;;8.13;;
35114;SDS011;21292;52.416;13.046;2023-02-28T01:10:08;14.88;;;8.63;;
35114;SDS011;21292;52.416;13.046;2023-02-28T01:12:39;13.37;;;7.73;;
35114;SDS011;21292;52.416;13.046;2023-02-28T01:15:09;18.25;;;7.40;;
35114;SDS011;21292;52.416;13.046;2023-02-28T01:17:38;14.68;;;7.20;;
35114;SDS011;21292;52.416;13.046;2023-02-28T01:20:06;13.73;;;7.82;;
35114;SDS011;21292;52.416;13.046;2023-02-28T01:22:37;15.23;;;7.75;;
35114;SDS011;21292;52.416;13.046;2023-02-28T01:25:08;12.27;;;7.45;;
35114;SDS011;21292;52.416;13.046;2023-02-28T01:27:36;10.65;;;6.57;;
35114;SDS011;21292;52.416;13.046;2023-02-28T01:30:06;11.63;;;6.65;;
35114;SDS011;21292;52.416;13.046;2023-02-28T01:32:35;12.50;;;7.43;;
35114;SDS011;21292;52.416;13.046;2023-02-28T01:35:06;13.70;;;7.50;;
35114;SDS011;21292;52.416;13.046;2023-02-28T01:37:35;11.10;;;6.68;;
35114;SDS011;21292;52.416;13.046;2023-02-28T01:40:04;15.85;;;7.00;;
35114;SDS011;21292;52.416;13.046;2023-02-28T01:42:35;12.85;;;6.88;;
35114;SDS011;21292;52.416;13.046;2023-02-28T01:45:06;10.77;;;6.93;;
35114;SDS011;21292;52.416;13.046;2023-02-28T01:47:47;11.68;;;6.80;;
35114;SDS011;21292;52.416;13.046;2023-02-28T01:50:19;15.90;;;6.78;;
35114;SDS011;21292;52.416;13.046;2023-02-28T01:52:49;13.48;;;7.38;;
35114;SDS011;21292;52.416;13.046;2023-02-28T01:55:18;12.48;;;7.15;;
35114;SDS011;21292;52.416;13.046;2023-02-28T01:57:48;9.43;;;6.55;;
35114;SDS011;21292;52.416;13.046;2023-02-28T02:00:22;13.02;;;6.93;;
35114;SDS011;21292;52.416;13.046;2023-02-28T02:05:23;9.80;;;6.10;;
35114;SDS011;21292;52.416;13.046;2023-02-28T02:07:57;11.82;;;6.40;;
35114;SDS011;21292;52.416;13.046;2023-02-28T02:10:32;16.00;;;6.53;;
35114;SDS011;21292;52.416;13.046;2023-02-28T02:13:10;12.88;;;6.20;;
35114;SDS011;21292;52.416;13.046;2023-02-28T02:15:47;11.00;;;5.90;;
35114;SDS011;21292;52.416;13.046;2023-02-28T02:18:25;12.45;;;6.13;;
35114;SDS011;21292;52.416;13.046;2023-02-28T02:21:10;12.93;;;6.75;;
35114;SDS011;21292;52.416;13.046;2023-02-28T02:26:48;9.88;;;5.32;;
35114;SDS011;21292;52.416;13.046;2023-02-28T02:29:31;11.45;;;6.38;;
35114;SDS011;21292;52.416;13.046;2023-02-28T02:32:29;12.03;;;7.13;;
35114;SDS011;21292;52.416;13.046;2023-02-28T02:35:15;8.10;;;5.95;;
35114;SDS011;21292;52.416;13.046;2023-02-28T02:37:47;12.20;;;5.53;;
35114;SDS011;21292;52.416;13.046;2023-02-28T02:40:20;13.55;;;6.25;;
35114;SDS011;21292;52.416;13.046;2023-02-28T02:42:51;10.82;;;5.82;;
35114;SDS011;21292;52.416;13.046;2023-02-28T02:45:23;16.83;;;6.43;;
35114;SDS011;21292;52.416;13.046;2023-02-28T02:47:55;12.07;;;5.80;;
35114;SDS011;21292;52.416;13.046;2023-02-28T02:50:27;12.48;;;5.75;;
35114;SDS011;21292;52.416;13.046;2023-02-28T02:52:58;11.68;;;6.45;;
35114;SDS011;21292;52.416;13.046;2023-02-28T02:55:30;11.27;;;6.22;;
35114;SDS011;21292;52.416;13.046;2023-02-28T02:58:04;7.95;;;5.38;;
35114;SDS011;21292;52.416;13.046;2023-02-28T03:00:34;12.07;;;6.05;;
35114;SDS011;21292;52.416;13.046;2023-02-28T03:03:06;12.70;;;5.85;;
35114;SDS011;21292;52.416;13.046;2023-02-28T03:05:39;8.68;;;6.00;;
35114;SDS011;21292;52.416;13.046;2023-02-28T03:08:12;10.55;;;6.10;;
35114;SDS011;21292;52.416;13.046;2023-02-28T03:10:41;10.85;;;6.00;;
35114;SDS011;21292;52.416;13.046;2023-02-28T03:13:19;9.40;;;6.00;;
35114;SDS011;21292;52.416;13.046;2023-02-28T03:16:10;14.57;;;6.43;;
35114;SDS011;21292;52.416;13.046;2023-02-28T03:18:48;13.38;;;6.63;;
35114;SDS011;21292;52.416;13.046;2023-02-28T03:21:23;10.75;;;7.00;;
35114;SDS011;21292;52.416;13.046;2023-02-28T03:23:56;11.25;;;7.03;;
35114;SDS011;21292;52.416;13.046;2023-02-28T03:26:28;15.35;;;6.70;;
35114;SDS011;21292;52.416;13.046;2023-02-28T03:29:01;13.82;;;6.97;;
35114;SDS011;21292;52.416;13.046;2023-02-28T03:31:32;13.57;;;7.07;;
35114;SDS011;21292;52.416;13.046;2023-02-28T03:34:05;10.82;;;6.55;;
35114;SDS011;21292;52.416;13.046;2023-02-28T03:36:39;11.90;;;6.18;;
35114;SDS011;21292;52.416;13.046;2023-02-28T03:39:12;12.73;;;6.82;;
35114;SDS011;21292;52.416;13.046;2023-02-28T03:41:43;11.45;;;7.00;;
35114;SDS011;21292;52.416;13.046;2023-02-28T03:44:17;15.32;;;7.63;;
35114;SDS011;21292;52.416;13.046;2023-02-28T03:46:48;13.40;;;7.47;;
35114;SDS011;21292;52.416;13.046;2023-02-28T03:49:22;11.57;;;6.55;;
35114;SDS011;21292;52.416;13.046;2023-02-28T03:51:54;10.65;;;6.13;;
35114;SDS011;21292;52.416;13.046;2023-02-28T03:54:25;13.23;;;7.23;;
35114;SDS011;21292;52.416;13.046;2023-02-28T03:56:57;16.35;;;7.03;;
35114;SDS011;21292;52.416;13.046;2023-02-28T03:59:34;12.13;;;6.50;;
35114;SDS011;21292;52.416;13.046;2023-02-28T04:02:09;17.30;;;6.78;;
35114;SDS011;21292;52.416;13.046;2023-02-28T04:04:42;16.23;;;7.47;;
35114;SDS011;21292;52.416;13.046;2023-02-28T04:07:17;18.17;;;6.57;;
35114;SDS011;21292;52.416;13.046;2023-02-28T04:09:46;13.83;;;6.97;;
35114;SDS011;21292;52.416;13.046;2023-02-28T04:12:15;11.10;;;6.78;;
35114;SDS011;21292;52.416;13.046;2023-02-28T04:14:43;13.82;;;7.55;;
35114;SDS011;21292;52.416;13.046;2023-02-28T04:17:12;15.27;;;6.93;;
35114;SDS011;21292;52.416;13.046;2023-02-28T04:19:43;13.75;;;7.68;;
35114;SDS011;21292;52.416;13.046;2023-02-28T04:22:12;12.25;;;6.63;;
35114;SDS011;21292;52.416;13.046;2023-02-28T04:24:43;21.30;;;7.13;;
35114;SDS011;21292;52.416;13.046;2023-02-28T04:27:11;16.88;;;8.25;;
35114;SDS011;21292;52.416;13.046;2023-02-28T04:29:41;15.40;;;7.78;;
35114;SDS011;21292;52.416;13.046;2023-02-28T04:32:11;15.93;;;7.93;;
35114;SDS011;21292;52.416;13.046;2023-02-28T04:34:40;19.17;;;7.82;;
35114;SDS011;21292;52.416;13.046;2023-02-28T04:37:09;15.00;;;8.55;;
35114;SDS011;21292;52.416;13.046;2023-02-28T04:39:40;14.00;;;7.35;;
35114;SDS011;21292;52.416;13.046;2023-02-28T04:42:10;14.73;;;7.85;;
35114;SDS011;21292;52.416;13.046;2023-02-28T04:44:42;16.05;;;7.75;;
35114;SDS011;21292;52.416;13.046;2023-02-28T04:47:11;14.82;;;7.43;;
35114;SDS011;21292;52.416;13.046;2023-02-28T04:49:42;12.57;;;8.13;;
35114;SDS011;21292;52.416;13.046;2023-02-28T04:54:41;15.73;;;7.53;;
35114;SDS011;21292;52.416;13.046;2023-02-28T04:57:10;13.27;;;7.57;;
35114;SDS011;21292;52.416;13.046;2023-02-28T04:59:39;17.15;;;8.48;;
35114;SDS011;21292;52.416;13.046;2023-02-28T05:02:07;16.08;;;8.30;;
35114;SDS011;21292;52.416;13.046;2023-02-28T05:04:37;12.15;;;8.23;;
35114;SDS011;21292;52.416;13.046;2023-02-28T05:07:06;17.02;;;8.23;;
35114;SDS011;21292;52.416;13.046;2023-02-28T05:09:35;14.40;;;7.57;;
35114;SDS011;21292;52.416;13.046;2023-02-28T05:12:03;16.25;;;8.30;;
35114;SDS011;21292;52.416;13.046;2023-02-28T05:14:34;18.20;;;9.55;;
35114;SDS011;21292;52.416;13.046;2023-02-28T05:17:04;16.35;;;9.15;;
35114;SDS011;21292;52.416;13.046;2023-02-28T05:19:32;17.58;;;8.35;;
35114;SDS011;21292;52.416;13.046;2023-02-28T05:22:00;13.48;;;7.75;;
35114;SDS011;21292;52.416;13.046;2023-02-28T05:24:29;13.18;;;7.70;;
35114;SDS011;21292;52.416;13.046;2023-02-28T05:26:58;15.80;;;8.57;;
35114;SDS011;21292;52.416;13.046;2023-02-28T05:29:30;15.45;;;8.75;;
35114;SDS011;21292;52.416;13.046;2023-02-28T05:31:59;18.00;;;8.90;;
35114;SDS011;21292;52.416;13.046;2023-02-28T05:34:28;17.20;;;8.57;;
35114;SDS011;21292;52.416;13.046;2023-02-28T05:36:56;18.10;;;8.80;;
35114;SDS011;21292;52.416;13.046;2023-02-28T05:39:25;19.10;;;9.25;;
35114;SDS011;21292;52.416;13.046;2023-02-28T05:41:55;14.77;;;9.07;;
35114;SDS011;21292;52.416;13.046;2023-02-28T05:44:26;16.58;;;9.05;;
35114;SDS011;21292;52.416;13.046;2023-02-28T05:46:54;16.15;;;9.02;;
35114;SDS011;21292;52.416;13.046;2023-02-28T05:49:26;15.77;;;9.60;;
35114;SDS011;21292;52.416;13.046;2023-02-28T05:51:55;20.33;;;10.15;;
35114;SDS011;21292;52.416;13.046;2023-02-28T05:54:24;16.75;;;9.60;;
35114;SDS011;21292;52.416;13.046;2023-02-28T05:56:55;24.70;;;9.15;;
35114;SDS011;21292;52.416;13.046;2023-02-28T05:59:25;21.00;;;10.15;;
35114;SDS011;21292;52.416;13.046;2023-02-28T06:01:53;18.02;;;10.40;;
35114;SDS011;21292;52.416;13.046;2023-02-28T06:04:22;27.67;;;11.25;;
35114;SDS011;21292;52.416;13.046;2023-02-28T06:06:59;21.83;;;10.57;;
35114;SDS011;21292;52.416;13.046;2023-02-28T06:09:28;21.95;;;10.93;;
35114;SDS011;21292;52.416;13.046;2023-02-28T06:11:57;21.38;;;11.63;;
35114;SDS011;21292;52.416;13.046;2023-02-28T06:14:25;19.90;;;11.07;;
35114;SDS011;21292;52.416;13.046;2023-02-28T06:16:54;21.88;;;11.80;;
35114;SDS011;21292;52.416;13.046;2023-02-28T06:19:24;19.40;;;10.27;;
35114;SDS011;21292;52.416;13.046;2023-02-28T06:21:53;22.02;;;12.43;;
35114;SDS011;21292;52.416;13.046;2023-02-28T06:24:29;18.60;;;10.38;;
35114;SDS011;21292;52.416;13.046;2023-02-28T06:26:58;20.60;;;12.20;;
35114;SDS011;21292;52.416;13.046;2023-02-28T06:29:31;17.75;;;11.48;;
35114;SDS011;21292;52.416;13.046;2023-02-28T06:32:00;23.27;;;11.43;;
35114;SDS011;21292;52.416;13.046;2023-02-28T06:34:28;21.63;;;11.43;;
35114;SDS011;21292;52.416;13.046;2023-02-28T06:36:57;18.15;;;10.95;;
35114;SDS011;21292;52.416;13.046;2023-02-28T06:39:32;19.73;;;11.00;;
35114;SDS011;21292;52.416;13.046;2023-02-28T06:42:01;18.00;;;9.73;;
35114;SDS011;21292;52.416;13.046;2023-02-28T06:44:30;18.77;;;8.45;;
35114;SDS011;21292;52.416;13.046;2023-02-28T06:47:05;17.10;;;10.02;;
35114;SDS011;21292;52.416;13.046;2023-02-28T06:49:37;19.92;;;9.68;;
35114;SDS011;21292;52.416;13.046;2023-02-28T06:52:06;14.38;;;8.90;;
35114;SDS011;21292;52.416;13.046;2023-02-28T06:54:37;15.38;;;7.97;;
35114;SDS011;21292;52.416;13.046;2023-02-28T06:57:05;19.98;;;8.88;;
35114;SDS011;21292;52.416;13.046;2023-02-28T06:59:34;15.40;;;8.77;;
35114;SDS011;21292;52.416;13.046;2023-02-28T07:02:03;12.70;;;8.70;;
35114;SDS011;21292;52.416;13.046;2023-02-28T07:04:33;12.85;;;8.15;;
35114;SDS011;21292;52.416;13.046;2023-02-28T07:07:01;18.23;;;7.53;;
35114;SDS011;21292;52.416;13.046;2023-02-28T07:09:33;10.00;;;6.97;;
35114;SDS011;21292;52.416;13.046;2023-02-28T07:12:03;12.40;;;7.15;;
35114;SDS011;21292;52.416;13.046;2023-02-28T07:14:31;13.00;;;6.72;;
35114;SDS011;21292;52.416;13.046;2023-02-28T07:17:00;10.70;;;6.72;;
35114;SDS011;21292;52.416;13.046;2023-02-28T07:19:28;10.55;;;7.10;;
35114;SDS011;21292;52.416;13.046;2023-02-28T07:21:56;12.50;;;8.20;;
35114;SDS011;21292;52.416;13.046;2023-02-28T07:24:28;12.35;;;7.03;;
35114;SDS011;21292;52.416;13.046;2023-02-28T07:26:56;11.85;;;6.93;;
35114;SDS011;21292;52.416;13.046;2023-02-28T07:29:27;10.65;;;7.43;;
35114;SDS011;21292;52.416;13.046;2023-02-28T07:31:55;9.95;;;6.85;;
35114;SDS011;21292;52.416;13.046;2023-02-28T07:34:24;9.85;;;5.97;;
35114;SDS011;21292;52.416;13.046;2023-02-28T07:36:55;10.60;;;5.45;;
35114;SDS011;21292;52.416;13.046;2023-02-28T07:39:23;9.32;;;5.93;;
35114;SDS011;21292;52.416;13.046;2023-02-28T07:41:54;8.13;;;5.68;;
35114;SDS011;21292;52.416;13.046;2023-02-28T07:44:22;13.48;;;7.03;;
35114;SDS011;21292;52.416;13.046;2023-02-28T07:46:52;12.07;;;6.28;;
35114;SDS011;21292;52.416;13.046;2023-02-28T07:49:26;9.02;;;5.55;;
35114;SDS011;21292;52.416;13.046;2023-02-28T07:52:09;8.35;;;5.85;;
35114;SDS011;21292;52.416;13.046;2023-02-28T07:54:38;13.23;;;6.72;;
35114;SDS011;21292;52.416;13.046;2023-02-28T07:57:08;12.07;;;5.55;;
35114;SDS011;21292;52.416;13.046;2023-02-28T07:59:37;9.07;;;5.50;;
35114;SDS011;21292;52.416;13.046;2023-02-28T08:02:08;10.77;;;5.72;;
35114;SDS011;21292;52.416;13.046;2023-02-28T08:04:38;10.90;;;5.75;;
35114;SDS011;21292;52.416;13.046;2023-02-28T08:07:07;11.80;;;5.43;;
35114;SDS011;21292;52.416;13.046;2023-02-28T08:09:37;11.93;;;5.45;;
35114;SDS011;21292;52.416;13.046;2023-02-28T08:12:06;7.88;;;4.93;;
35114;SDS011;21292;52.416;13.046;2023-02-28T08:14:42;12.15;;;4.93;;
35114;SDS011;21292;52.416;13.046;2023-02-28T08:17:14;8.18;;;4.95;;
35114;SDS011;21292;52.416;13.046;2023-02-28T08:19:44;8.73;;;4.60;;
35114;SDS011;21292;52.416;13.046;2023-02-28T08:22:14;7.28;;;4.65;;
35114;SDS011;21292;52.416;13.046;2023-02-28T08:24:43;6.65;;;3.88;;
35114;SDS011;21292;52.416;13.046;2023-02-28T08:27:11;6.00;;;3.15;;
35114;SDS011;21292;52.416;13.046;2023-02-28T08:29:42;5.45;;;3.83;;
35114;SDS011;21292;52.416;13.046;2023-02-28T08:32:13;4.90;;;3.72;;
35114;SDS011;21292;52.416;13.046;2023-02-28T08:34:55;6.00;;;3.72;;
35114;SDS011;21292;52.416;13.046;2023-02-28T08:37:24;6.40;;;3.22;;
35114;SDS011;21292;52.416;13.046;2023-02-28T08:39:53;6.28;;;2.70;;
35114;SDS011;21292;52.416;13.046;2023-02-28T08:42:23;4.57;;;2.45;;
35114;SDS011;21292;52.416;13.046;2023-02-28T08:44:52;3.85;;;2.80;;
35114;SDS011;21292;52.416;13.046;2023-02-28T08:47:22;4.25;;;2.63;;
35114;SDS011;21292;52.416;13.046;2023-02-28T08:49:54;4.07;;;2.85;;
35114;SDS011;21292;52.416;13.046;2023-02-28T08:52:22;7.03;;;3.30;;
35114;SDS011;21292;52.416;13.046;2023-02-28T08:54:53;3.22;;;2.65;;
35114;SDS011;21292;52.416;13.046;2023-02-28T08:57:21;4.60;;;2.78;;
35114;SDS011;21292;52.416;13.046;2023-02-28T08:59:50;3.25;;;2.45;;
35114;SDS011;21292;52.416;13.046;2023-02-28T09:02:19;4.00;;;3.00;;
35114;SDS011;21292;52.416;13.046;2023-02-28T09:04:49;5.97;;;2.85;;
35114;SDS011;21292;52.416;13.046;2023-02-28T09:07:17;4.95;;;2.13;;
35114;SDS011;21292;52.416;13.046;2023-02-28T09:09:46;3.65;;;2.17;;
35114;SDS011;21292;52.416;13.046;2023-02-28T09:12:32;3.00;;;2.60;;
35114;SDS011;21292;52.416;13.046;2023-02-28T09:15:02;4.07;;;2.40;;
35114;SDS011;21292;52.416;13.046;2023-02-28T09:17:31;5.65;;;2.38;;
35114;SDS011;21292;52.416;13.046;2023-02-28T09:20:01;3.80;;;2.40;;
35114;SDS011;21292;52.416;13.046;2023-02-28T09:22:30;3.03;;;2.05;;
35114;SDS011;21292;52.416;13.046;2023-02-28T09:24:59;8.02;;;2.38;;
35114;SDS011;21292;52.416;13.046;2023-02-28T09:27:27;3.55;;;2.25;;
35114;SDS011;21292;52.416;13.046;2023-02-28T09:29:55;6.20;;;2.30;;
35114;SDS011;21292;52.416;13.046;2023-02-28T09:32:25;3.78;;;2.60;;
35114;SDS011;21292;52.416;13.046;2023-02-28T09:34:53;3.95;;;2.13;;
35114;SDS011;21292;52.416;13.046;2023-02-28T09:37:23;3.45;;;2.22;;
35114;SDS011;21292;52.416;13.046;2023-02-28T09:39:53;3.47;;;2.13;;
35114;SDS011;21292;52.416;13.046;2023-02-28T09:42:21;4.22;;;2.33;;
35114;SDS011;21292;52.416;13.046;2023-02-28T09:45:02;4.07;;;2.30;;
35114;SDS011;21292;52.416;13.046;2023-02-28T09:47:36;3.40;;;2.17;;
35114;SDS011;21292;52.416;13.046;2023-02-28T09:50:08;3.47;;;1.90;;
35114;SDS011;21292;52.416;13.046;2023-02-28T09:52:42;3.60;;;2.00;;
35114;SDS011;21292;52.416;13.046;2023-02-28T09:55:18;3.28;;;2.08;;
35114;SDS011;21292;52.416;13.046;2023-02-28T09:58:02;3.30;;;2.20;;
35114;SDS011;21292;52.416;13.046;2023-02-28T10:00:44;3.67;;;2.17;;
35114;SDS011;21292;52.416;13.046;2023-02-28T10:03:22;4.80;;;2.22;;
35114;SDS011;21292;52.416;13.046;2023-02-28T10:05:56;3.92;;;2.15;;
35114;SDS011;21292;52.416;13.046;2023-02-28T10:08:31;3.70;;;2.17;;
35114;SDS011;21292;52.416;13.046;2023-02-28T10:11:09;3.08;;;2.05;;
35114;SDS011;21292;52.416;13.046;2023-02-28T10:13:44;3.97;;;2.00;;
35114;SDS011;21292;52.416;13.046;2023-02-28T10:16:21;4.78;;;2.45;;
35114;SDS011;21292;52.416;13.046;2023-02-28T10:18:53;4.82;;;2.38;;
35114;SDS011;21292;52.416;13.046;2023-02-28T10:24:02;3.88;;;2.30;;
35114;SDS011;21292;52.416;13.046;2023-02-28T10:26:33;2.10;;;1.80;;
35114;SDS011;21292;52.416;13.046;2023-02-28T10:29:01;4.93;;;2.30;;
35114;SDS011;21292;52.416;13.046;2023-02-28T10:31:32;3.83;;;2.60;;
35114;SDS011;21292;52.416;13.046;2023-02-28T10:34:02;3.28;;;2.60;;
35114;SDS011;21292;52.416;13.046;2023-02-28T10:36:35;4.60;;;2.72;;
35114;SDS011;21292;52.416;13.046;2023-02-28T10:42:04;5.35;;;2.33;;
35114;SDS011;21292;52.416;13.046;2023-02-28T10:44:33;4.32;;;2.25;;
35114;SDS011;21292;52.416;13.046;2023-02-28T10:47:02;4.70;;;2.42;;
35114;SDS011;21292;52.416;13.046;2023-02-28T10:49:32;3.20;;;2.05;;
35114;SDS011;21292;52.416;13.046;2023-02-28T10:52:08;3.25;;;2.05;;
35114;SDS011;21292;52.416;13.046;2023-02-28T10:54:40;5.50;;;2.40;;
35114;SDS011;21292;52.416;13.046;2023-02-28T10:57:12;6.85;;;2.53;;
35114;SDS011;21292;52.416;13.046;2023-02-28T10:59:45;3.85;;;1.88;;
35114;SDS011;21292;52.416;13.046;2023-02-28T11:02:29;4.03;;;2.35;;
35114;SDS011;21292;52.416;13.046;2023-02-28T11:08:05;2.83;;;1.90;;
35114;SDS011;21292;52.416;13.046;2023-02-28T11:10:43;4.38;;;2.28;;
35114;SDS011;21292;52.416;13.046;2023-02-28T11:15:45;4.85;;;2.30;;
35114;SDS011;21292;52.416;13.046;2023-02-28T11:18:20;3.67;;;2.33;;
35114;SDS011;21292;52.416;13.046;2023-02-28T11:20:52;4.00;;;2.67;;
35114;SDS011;21292;52.416;13.046;2023-02-28T11:23:24;4.20;;;2.40;;
35114;SDS011;21292;52.416;13.046;2023-02-28T11:25:56;3.50;;;2.03;;
35114;SDS011;21292;52.416;13.046;2023-02-28T11:28:28;5.72;;;2.42;;
35114;SDS011;21292;52.416;13.046;2023-02-28T11:31:00;3.63;;;2.13;;
35114;SDS011;21292;52.416;13.046;2023-02-28T11:33:31;4.75;;;2.97;;
35114;SDS011;21292;52.416;13.046;2023-02-28T11:36:08;6.93;;;2.58;;
35114;SDS011;21292;52.416;13.046;2023-02-28T11:38:38;4.47;;;3.05;;
35114;SDS011;21292;52.416;13.046;2023-02-28T11:41:13;4.93;;;2.42;;
35114;SDS011;21292;52.416;13.046;2023-02-28T11:44:00;5.00;;;2.17;;
35114;SDS011;21292;52.416;13.046;2023-02-28T11:46:35;6.63;;;2.70;;
35114;SDS011;21292;52.416;13.046;2023-02-28T11:49:25;8.27;;;2.95;;
35114;SDS011;21292;52.416;13.046;2023-02-28T11:52:06;6.40;;;2.80;;
35114;SDS011;21292;52.416;13.046;2023-02-28T11:54:51;4.40;;;2.30;;
35114;SDS011;21292;52.416;13.046;2023-02-28T11:57:41;6.15;;;3.35;;
35114;SDS011;21292;52.416;13.046;2023-02-28T12:00:24;5.10;;;2.67;;
35114;SDS011;21292;52.416;13.046;2023-02-28T12:03:27;3.53;;;2.20;;
35114;SDS011;21292;52.416;13.046;2023-02-28T12:06:19;6.60;;;2.90;;
35114;SDS011;21292;52.416;13.046;2023-02-28T12:09:10;4.47;;;2.38;;
35114;SDS011;21292;52.416;13.046;2023-02-28T12:11:51;5.65;;;2.47;;
35114;SDS011;21292;52.416;13.046;2023-02-28T12:14:37;3.92;;;3.00;;
35114;SDS011;21292;52.416;13.046;2023-02-28T12:17:32;4.53;;;2.20;;
35114;SDS011;21292;52.416;13.046;2023-02-28T12:20:10;3.60;;;2.35;;
35114;SDS011;21292;52.416;13.046;2023-02-28T12:22:53;5.80;;;2.80;;
35114;SDS011;21292;52.416;13.046;2023-02-28T12:25:44;3.72;;;2.63;;
35114;SDS011;21292;52.416;13.046;2023-02-28T12:28:20;4.90;;;2.58;;
35114;SDS011;21292;52.416;13.046;2023-02-28T12:30:59;3.95;;;3.00;;
35114;SDS011;21292;52.416;13.046;2023-02-28T12:33:31;5.00;;;2.80;;
35114;SDS011;21292;52.416;13.046;2023-02-28T12:36:03;5.30;;;2.63;;
35114;SDS011;21292;52.416;13.046;2023-02-28T12:38:37;9.80;;;3.38;;
35114;SDS011;21292;52.416;13.046;2023-02-28T12:41:09;4.30;;;2.78;;
35114;SDS011;21292;52.416;13.046;2023-02-28T12:43:41;6.40;;;3.05;;
35114;SDS011;21292;52.416;13.046;2023-02-28T12:46:14;4.47;;;2.73;;
35114;SDS011;21292;52.416;13.046;2023-02-28T12:48:48;3.65;;;3.08;;
35114;SDS011;21292;52.416;13.046;2023-02-28T12:51:19;3.17;;;2.67;;
35114;SDS011;21292;52.416;13.046;2023-02-28T12:53:50;4.97;;;2.75;;
35114;SDS011;21292;52.416;13.046;2023-02-28T12:56:30;6.97;;;3.33;;
35114;SDS011;21292;52.416;13.046;2023-02-28T12:59:10;6.00;;;3.15;;
35114;SDS011;21292;52.416;13.046;2023-02-28T13:01:49;5.40;;;2.88;;
35114;SDS011;21292;52.416;13.046;2023-02-28T13:07:30;3.72;;;2.53;;
35114;SDS011;21292;52.416;13.046;2023-02-28T13:10:14;4.60;;;2.53;;
35114;SDS011;21292;52.416;13.046;2023-02-28T13:12:47;9.05;;;3.40;;
35114;SDS011;21292;52.416;13.046;2023-02-28T13:15:18;4.70;;;2.80;;
35114;SDS011;21292;52.416;13.046;2023-02-28T13:17:53;8.60;;;2.95;;
35114;SDS011;21292;52.416;13.046;2023-02-28T13:20:24;5.82;;;2.85;;
35114;SDS011;21292;52.416;13.046;2023-02-28T13:22:53;4.38;;;2.65;;
35114;SDS011;21292;52.416;13.046;2023-02-28T13:35:15;7.18;;;3.63;;
35114;SDS011;21292;52.416;13.046;2023-02-28T13:38:12;5.32;;;2.78;;
35114;SDS011;21292;52.416;13.046;2023-02-28T13:40:44;6.57;;;3.42;;
35114;SDS011;21292;52.416;13.046;2023-02-28T13:43:16;7.32;;;2.88;;
35114;SDS011;21292;52.416;13.046;2023-02-28T13:46:10;5.13;;;3.50;;
35114;SDS011;21292;52.416;13.046;2023-02-28T13:48:42;6.15;;;3.47;;
35114;SDS011;21292;52.416;13.046;2023-02-28T13:54:19;8.18;;;3.63;;
35114;SDS011;21292;52.416;13.046;2023-02-28T13:57:01;6.50;;;3.17;;
35114;SDS011;21292;52.416;13.046;2023-02-28T13:59:38;6.38;;;3.38;;
35114;SDS011;21292;52.416;13.046;2023-02-28T14:02:28;4.47;;;3.25;;
35114;SDS011;21292;52.416;13.046;2023-02-28T14:05:13;6.40;;;3.30;;
35114;SDS011;21292;52.416;13.046;2023-02-28T14:07:45;5.22;;;3.78;;
35114;SDS011;21292;52.416;13.046;2023-02-28T14:10:25;10.07;;;3.53;;
35114;SDS011;21292;52.416;13.046;2023-02-28T14:12:58;9.98;;;3.75;;
35114;SDS011;21292;52.416;13.046;2023-02-28T14:15:39;5.28;;;3.53;;
35114;SDS011;21292;52.416;13.046;2023-02-28T14:18:17;5.03;;;3.17;;
35114;SDS011;21292;52.416;13.046;2023-02-28T14:20:53;5.03;;;3.20;;
35114;SDS011;21292;52.416;13.046;2023-02-28T14:26:16;11.30;;;3.30;;
35114;SDS011;21292;52.416;13.046;2023-02-28T14:29:01;7.85;;;2.95;;
35114;SDS011;21292;52.416;13.046;2023-02-28T14:31:39;6.05;;;3.38;;
35114;SDS011;21292;52.416;13.046;2023-02-28T14:34:16;6.75;;;3.58;;
35114;SDS011;21292;52.416;13.046;2023-02-28T14:36:53;8.52;;;3.88;;
35114;SDS011;21292;52.416;13.046;2023-02-28T14:39:22;8.60;;;3.25;;
35114;SDS011;21292;52.416;13.046;2023-02-28T14:41:53;5.68;;;3.33;;
35114;SDS011;21292;52.416;13.046;2023-02-28T14:44:23;5.43;;;3.20;;
35114;SDS011;21292;52.416;13.046;2023-02-28T14:46:53;11.25;;;3.83;;
35114;SDS011;21292;52.416;13.046;2023-02-28T14:49:24;6.40;;;3.17;;
35114;SDS011;21292;52.416;13.046;2023-02-28T14:52:02;7.73;;;3.73;;
35114;SDS011;21292;52.416;13.046;2023-02-28T14:54:41;8.27;;;3.67;;
35114;SDS011;21292;52.416;13.046;2023-02-28T14:57:21;8.85;;;3.63;;
35114;SDS011;21292;52.416;13.046;2023-02-28T14:59:58;8.00;;;3.28;;
35114;SDS011;21292;52.416;13.046;2023-02-28T15:02:35;6.57;;;3.60;;
35114;SDS011;21292;52.416;13.046;2023-02-28T15:05:15;5.93;;;3.75;;
35114;SDS011;21292;52.416;13.046;2023-02-28T15:08:01;6.70;;;3.70;;
35114;SDS011;21292;52.416;13.046;2023-02-28T15:10:32;6.55;;;3.60;;
35114;SDS011;21292;52.416;13.046;2023-02-28T15:13:04;7.25;;;3.83;;
35114;SDS011;21292;52.416;13.046;2023-02-28T15:15:39;8.02;;;4.10;;
35114;SDS011;21292;52.416;13.046;2023-02-28T15:20:57;8.63;;;3.97;;
35114;SDS011;21292;52.416;13.046;2023-02-28T15:23:30;10.07;;;3.90;;
35114;SDS011;21292;52.416;13.046;2023-02-28T15:25:59;10.20;;;4.22;;
35114;SDS011;21292;52.416;13.046;2023-02-28T15:28:29;7.32;;;3.95;;
35114;SDS011;21292;52.416;13.046;2023-02-28T15:30:58;6.90;;;4.05;;
35114;SDS011;21292;52.416;13.046;2023-02-28T15:33:28;5.75;;;3.63;;
35114;SDS011;21292;52.416;13.046;2023-02-28T15:36:04;6.38;;;4.35;;
35114;SDS011;21292;52.416;13.046;2023-02-28T15:38:35;6.78;;;3.75;;
35114;SDS011;21292;52.416;13.046;2023-02-28T15:41:04;5.72;;;3.30;;